Time;durP1;ratioP1;P1;durP2;ratioP2;P2;SDS_P1;SDS_P2;PMS_P1;PMS_P2;Temp;Humidity;BMP_temperature;BMP_pressure;BME280_temperature;BME280_humidity;BME280_pressure;Samples;Min_cycle;Max_cycle;Signal;HPM_P1;HPM_P2
2022/01/11 00:02:02;;;;;;;66.95;21.02;;;;;;;-1.81;100.00;103033.44;4898109;29;20044;-75
2022/01/11 00:04:29;;;;;;;99.22;23.85;;;;;;;-1.86;100.00;103025.72;4899764;29;20097;-75
2022/01/11 00:06:56;;;;;;;80.90;24.98;;;;;;;-1.88;100.00;103021.44;4907970;29;20032;-75
2022/01/11 00:09:39;;;;;;;134.88;26.10;;;;;;;-1.79;100.00;103043.78;4906524;29;20044;-75
2022/01/11 00:12:08;;;;;;;67.57;18.80;;;;;;;-1.92;100.00;103017.19;4912935;29;20072;-75
2022/01/11 00:14:33;;;;;;;84.13;23.92;;;;;;;-1.84;100.00;103040.41;4933462;29;20563;-75
2022/01/11 00:16:59;;;;;;;62.65;24.20;;;;;;;-1.98;100.00;103022.41;4932646;29;20119;-75
2022/01/11 00:19:26;;;;;;;75.68;18.30;;;;;;;-1.84;100.00;103050.75;4931296;29;20036;-75
2022/01/11 00:21:52;;;;;;;87.30;26.63;;;;;;;-1.86;100.00;103049.03;4930677;29;20040;-75
2022/01/11 00:24:30;;;;;;;94.57;23.65;;;;;;;-1.90;100.00;103062.88;4935447;29;20114;-75
2022/01/11 00:27:09;;;;;;;79.93;23.27;;;;;;;-2.10;100.00;103019.06;4919980;29;20128;-75
2022/01/11 00:29:39;;;;;;;97.00;20.90;;;;;;;-2.12;100.00;103019.97;4930148;29;20035;-75
2022/01/11 00:32:10;;;;;;;62.75;21.92;;;;;;;-2.13;100.00;103037.22;4929430;29;20120;-75
2022/01/11 00:34:50;;;;;;;85.72;24.67;;;;;;;-2.07;100.00;103052.69;4917766;29;20495;-75
2022/01/11 00:37:17;;;;;;;85.15;25.85;;;;;;;-2.03;100.00;103058.69;4931215;29;20035;-75
2022/01/11 00:39:45;;;;;;;108.88;27.98;;;;;;;-2.22;100.00;103028.69;4931281;29;20396;-75
2022/01/11 00:42:12;;;;;;;113.65;26.13;;;;;;;-2.06;100.00;103063.91;4928222;29;20358;-75
2022/01/11 00:44:37;;;;;;;119.75;28.33;;;;;;;-2.11;100.00;103066.53;4921729;29;20027;-75
2022/01/11 00:47:03;;;;;;;90.78;23.85;;;;;;;-2.08;100.00;103061.31;4930621;29;20051;-75
2022/01/11 00:49:29;;;;;;;99.80;28.92;;;;;;;-2.11;100.00;103061.38;4932450;29;20115;-75
2022/01/11 00:51:54;;;;;;;94.65;18.92;;;;;;;-2.17;100.00;103056.25;4911200;29;20031;-75
2022/01/11 00:54:20;;;;;;;129.27;23.00;;;;;;;-2.19;100.00;103055.38;4931430;29;20087;-75
2022/01/11 00:56:45;;;;;;;56.85;22.80;;;;;;;-2.17;100.00;103061.41;4932382;29;20024;-75
2022/01/11 00:59:11;;;;;;;68.30;18.40;;;;;;;-2.33;100.00;103044.28;4918865;29;20035;-75
2022/01/11 01:01:37;;;;;;;49.75;20.05;;;;;;;-2.11;100.00;103070.84;4916211;29;20088;-75
2022/01/11 01:04:07;;;;;;;136.68;26.92;;;;;;;-2.26;100.00;103066.66;4929243;29;20040;-76
2022/01/11 01:06:33;;;;;;;82.78;23.77;;;;;;;-2.28;100.00;103061.50;4920088;29;20054;-75
2022/01/11 01:08:59;;;;;;;127.78;25.60;;;;;;;-2.33;100.00;103052.06;4930495;29;20034;-75
2022/01/11 01:11:25;;;;;;;69.80;24.08;;;;;;;-2.23;100.00;103081.31;4930718;29;20056;-75
2022/01/11 01:13:51;;;;;;;89.65;25.02;;;;;;;-2.29;100.00;103069.25;4930731;29;20103;-76
2022/01/11 01:16:16;;;;;;;76.80;16.10;;;;;;;-2.34;100.00;103058.97;4911202;29;20036;-75
2022/01/11 01:18:42;;;;;;;120.68;29.13;;;;;;;-2.22;100.00;103078.72;4914190;29;20032;-75
2022/01/11 01:21:07;;;;;;;75.70;21.10;;;;;;;-2.38;100.00;103064.16;4933827;29;20460;-75
2022/01/11 01:23:33;;;;;;;93.35;25.00;;;;;;;-2.17;100.00;103087.28;4902421;29;20468;-75
2022/01/11 01:26:00;;;;;;;68.15;22.23;;;;;;;-2.11;100.00;103087.25;4928203;29;20150;-75
2022/01/11 01:28:25;;;;;;;69.07;20.98;;;;;;;-2.09;100.00;103095.84;4928855;29;20126;-75
2022/01/11 01:30:52;;;;;;;139.82;27.08;;;;;;;-2.01;100.00;103097.50;4926845;29;20126;-75
2022/01/11 01:33:18;;;;;;;143.57;31.10;;;;;;;-2.02;100.00;103098.38;4898665;29;20391;-75
2022/01/11 01:35:49;;;;;;;96.18;22.67;;;;;;;-2.05;100.00;103099.25;4925173;29;20032;-75
2022/01/11 01:38:21;;;;;;;108.45;20.40;;;;;;;-2.02;100.00;103106.16;4931610;29;20023;-75
2022/01/11 01:40:47;;;;;;;80.20;16.38;;;;;;;-2.01;100.00;103102.66;4915574;29;20039;-75
2022/01/11 01:43:14;;;;;;;58.35;21.60;;;;;;;-2.04;100.00;103107.88;4921472;29;20040;-75
2022/01/11 01:45:43;;;;;;;56.83;21.05;;;;;;;-2.02;100.00;103108.72;4918540;29;20044;-75
2022/01/11 01:48:09;;;;;;;79.85;24.15;;;;;;;-2.03;100.00;103115.63;4913033;29;20081;-75
2022/01/11 01:50:35;;;;;;;87.55;19.52;;;;;;;-2.18;100.00;103111.41;4914335;29;20090;-75
2022/01/11 01:53:05;;;;;;;100.60;22.10;;;;;;;-2.11;100.00;103131.22;4927731;29;20031;-75
2022/01/11 01:55:30;;;;;;;57.38;19.33;;;;;;;-2.17;100.00;103128.69;4928059;29;20040;-75
2022/01/11 01:57:56;;;;;;;67.22;19.98;;;;;;;-2.15;100.00;103126.94;4930113;29;20104;-75
2022/01/11 02:00:23;;;;;;;54.15;19.92;;;;;;;-2.18;100.00;103111.41;4909698;29;20078;-75
2022/01/11 02:02:49;;;;;;;46.83;18.45;;;;;;;-2.05;100.00;103135.47;4911069;29;20583;-76
2022/01/11 02:05:14;;;;;;;62.90;19.05;;;;;;;-2.07;100.00;103126.84;4902983;29;20067;-75
2022/01/11 02:07:40;;;;;;;67.40;23.30;;;;;;;-2.18;100.00;103100.22;4929107;29;20524;-75
2022/01/11 02:10:07;;;;;;;67.50;22.02;;;;;;;-2.05;100.00;103121.69;4911691;29;20504;-75
2022/01/11 02:12:34;;;;;;;87.07;21.15;;;;;;;-2.05;100.00;103119.09;4924556;29;20700;-75
2022/01/11 02:15:00;;;;;;;70.90;17.75;;;;;;;-2.15;100.00;103118.31;4929428;29;20044;-76
2022/01/11 02:17:27;;;;;;;112.53;26.48;;;;;;;-2.22;100.00;103109.75;4926013;29;20032;-76
2022/01/11 02:19:55;;;;;;;101.15;22.60;;;;;;;-2.25;100.00;103094.25;4923567;29;20031;-75
2022/01/11 02:22:21;;;;;;;128.73;22.83;;;;;;;-2.14;100.00;103107.94;4906035;29;20156;-75
2022/01/11 02:24:46;;;;;;;121.75;24.63;;;;;;;-2.16;100.00;103116.59;4926978;29;20040;-75
2022/01/11 02:27:12;;;;;;;159.98;22.05;;;;;;;-2.19;100.00;103117.47;4931731;29;20036;-75
2022/01/11 02:29:38;;;;;;;80.25;19.58;;;;;;;-2.14;100.00;103112.25;4900754;29;20135;-75
2022/01/11 02:32:05;;;;;;;58.83;19.77;;;;;;;-2.00;100.00;103130.25;4927250;29;20134;-75
2022/01/11 02:34:30;;;;;;;114.40;21.67;;;;;;;-2.13;100.00;103098.47;4906506;29;20044;-75
2022/01/11 02:36:55;;;;;;;87.30;19.02;;;;;;;-2.21;100.00;103079.56;4896677;29;20079;-75
2022/01/11 02:39:21;;;;;;;108.85;20.00;;;;;;;-2.07;100.00;103103.56;4906902;29;20036;-75
2022/01/11 02:41:52;;;;;;;128.98;23.23;;;;;;;-2.05;100.00;103121.69;4930684;29;20063;-75
2022/01/11 02:44:17;;;;;;;52.00;18.05;;;;;;;-2.14;100.00;103107.94;4911448;29;20094;-75
2022/01/11 02:46:43;;;;;;;69.63;18.38;;;;;;;-2.07;100.00;103114.81;4924855;29;20043;-75
2022/01/11 02:49:08;;;;;;;90.30;25.85;;;;;;;-2.06;100.00;103110.47;4908907;29;20072;-75
2022/01/11 02:51:33;;;;;;;49.05;16.38;;;;;;;-2.03;100.00;103114.75;4913004;29;20087;-75
2022/01/11 02:54:00;;;;;;;56.85;14.65;;;;;;;-2.04;100.00;103113.91;4914271;29;20031;-75
2022/01/11 02:56:26;;;;;;;79.20;20.33;;;;;;;-1.96;100.00;103119.00;4904951;29;20535;-76
2022/01/11 02:58:52;;;;;;;50.13;17.65;;;;;;;-1.98;100.00;103125.91;4906962;29;20040;-75
2022/01/11 03:01:18;;;;;;;66.40;20.83;;;;;;;-2.02;100.00;103121.66;4926490;29;20059;-75
2022/01/11 03:03:44;;;;;;;96.95;26.05;;;;;;;-2.05;100.00;103119.94;4929486;29;20031;-75
2022/01/11 03:06:10;;;;;;;84.00;24.60;;;;;;;-2.06;100.00;103120.84;4925392;29;20481;-75
2022/01/11 03:08:39;;;;;;;123.93;26.27;;;;;;;-2.03;100.00;103114.75;4913568;29;20040;-75
2022/01/11 03:11:06;;;;;;;111.70;22.42;;;;;;;-2.04;100.00;103105.31;4926308;29;20071;-75
2022/01/11 03:13:35;;;;;;;38.70;16.27;;;;;;;-2.06;100.00;103089.78;4916177;29;20048;-75
2022/01/11 03:16:01;;;;;;;76.88;18.17;;;;;;;-1.95;100.00;103107.81;4924155;29;20031;-75
2022/01/11 03:18:27;;;;;;;75.43;19.50;;;;;;;-1.95;100.00;103120.75;4913357;29;20051;-75
2022/01/11 03:20:53;;;;;;;52.15;17.63;;;;;;;-1.95;100.00;103115.56;4929351;29;20171;-75
2022/01/11 03:23:20;;;;;;;50.95;19.85;;;;;;;-1.93;100.00;103117.25;4924365;29;20110;-75
2022/01/11 03:25:47;;;;;;;86.55;22.52;;;;;;;-1.90;100.00;103121.53;4929427;29;20031;-75
2022/01/11 03:28:13;;;;;;;114.25;22.50;;;;;;;-1.98;100.00;103118.16;4930534;29;20047;-75
2022/01/11 03:30:39;;;;;;;104.32;24.48;;;;;;;-1.97;100.00;103119.91;4927170;29;20552;-75
2022/01/11 03:33:08;;;;;;;95.55;24.15;;;;;;;-2.02;100.00;103119.09;4924782;29;20032;-75
2022/01/11 03:35:35;;;;;;;76.93;20.55;;;;;;;-1.99;100.00;103131.97;4927358;29;20468;-74
2022/01/11 03:38:01;;;;;;;111.80;22.50;;;;;;;-1.97;100.00;103125.06;4926923;29;20115;-75
2022/01/11 03:40:27;;;;;;;81.60;21.13;;;;;;;-2.09;100.00;103105.31;4909934;29;20039;-74
2022/01/11 03:42:52;;;;;;;83.45;16.98;;;;;;;-1.98;100.00;103118.16;4918954;29;20020;-74
2022/01/11 03:45:22;;;;;;;73.47;18.25;;;;;;;-1.96;100.00;103119.00;4929755;29;20225;-74
2022/01/11 03:47:50;;;;;;;107.28;25.98;;;;;;;-1.98;100.00;103118.16;4926519;29;20035;-74
2022/01/11 03:50:16;;;;;;;69.70;20.90;;;;;;;-1.88;100.00;103128.41;4903185;29;20118;-74
2022/01/11 03:52:43;;;;;;;133.55;28.73;;;;;;;-1.90;100.00;103130.16;4923298;29;20115;-74
2022/01/11 03:55:12;;;;;;;127.93;27.35;;;;;;;-1.97;100.00;103123.34;4923868;29;20028;-74
2022/01/11 03:57:39;;;;;;;83.18;20.80;;;;;;;-2.03;100.00;103122.53;4928597;29;20378;-75
2022/01/11 04:00:11;;;;;;;123.05;25.63;;;;;;;-1.93;100.00;103131.94;4912916;29;20118;-74
2022/01/11 04:02:36;;;;;;;106.97;25.95;;;;;;;-1.90;100.00;103137.06;4908081;29;20070;-74
2022/01/11 04:05:03;;;;;;;83.10;23.67;;;;;;;-1.90;100.00;103131.91;4926038;29;20032;-74
2022/01/11 04:07:28;;;;;;;75.60;20.30;;;;;;;-1.92;100.00;103150.03;4927936;29;20071;-75
2022/01/11 04:09:55;;;;;;;112.57;28.45;;;;;;;-1.92;100.00;103131.91;4924664;29;20866;-74
2022/01/11 04:12:22;;;;;;;95.63;26.30;;;;;;;-1.92;100.00;103120.69;4926426;29;20046;-75
2022/01/11 04:14:47;;;;;;;97.50;27.77;;;;;;;-1.88;100.00;103119.81;4924701;29;20042;-74
2022/01/11 04:17:13;;;;;;;138.00;31.13;;;;;;;-2.02;100.00;103095.78;4927449;29;20043;-75
2022/01/11 04:19:39;;;;;;;92.50;27.05;;;;;;;-1.85;100.00;103114.63;4910974;29;20032;-74
2022/01/11 04:22:05;;;;;;;127.60;30.40;;;;;;;-1.85;100.00;103119.78;4917034;29;20032;-74
2022/01/11 04:24:30;;;;;;;108.70;26.95;;;;;;;-1.89;100.00;103102.56;4901861;29;20072;-74
2022/01/11 04:26:56;;;;;;;68.05;22.52;;;;;;;-1.81;100.00;103105.91;4924483;29;20441;-74
2022/01/11 04:29:21;;;;;;;175.13;34.10;;;;;;;-1.92;100.00;103084.47;4909446;29;20023;-74
2022/01/11 04:31:47;;;;;;;99.18;23.20;;;;;;;-1.79;100.00;103093.81;4910272;29;20076;-74
2022/01/11 04:34:12;;;;;;;82.43;24.98;;;;;;;-1.74;100.00;103107.59;4929384;29;20423;-74
2022/01/11 04:36:38;;;;;;;79.75;18.73;;;;;;;-1.72;100.00;103111.03;4909517;29;20047;-74
2022/01/11 04:39:06;;;;;;;78.72;22.00;;;;;;;-1.77;100.00;103092.09;4891756;29;20051;-75
2022/01/11 04:41:32;;;;;;;158.95;30.67;;;;;;;-1.74;100.00;103107.59;4926486;29;20044;-75
2022/01/11 04:43:57;;;;;;;95.22;25.98;;;;;;;-1.68;100.00;103101.50;4890628;29;20032;-74
2022/01/11 04:46:23;;;;;;;103.53;26.35;;;;;;;-1.67;100.00;103101.47;4907559;29;20436;-74
2022/01/11 04:48:49;;;;;;;113.05;21.98;;;;;;;-1.74;100.00;103086.00;4922467;29;20070;-74
2022/01/11 04:51:15;;;;;;;145.52;30.83;;;;;;;-1.71;100.00;103097.19;4928966;29;20097;-74
2022/01/11 04:53:41;;;;;;;89.65;24.08;;;;;;;-2.07;100.00;103028.53;4914814;29;20039;-74
2022/01/11 04:56:07;;;;;;;84.30;23.65;;;;;;;-1.67;100.00;103096.31;4906873;29;20749;-74
2022/01/11 04:58:33;;;;;;;95.68;26.38;;;;;;;-1.76;100.00;103080.88;4928567;29;20039;-74
2022/01/11 05:00:59;;;;;;;115.57;26.52;;;;;;;-1.64;100.00;103103.19;4930133;29;20035;-74
2022/01/11 05:03:24;;;;;;;66.47;24.00;;;;;;;-1.61;100.00;103097.97;4915060;29;20035;-74
2022/01/11 05:05:50;;;;;;;114.85;28.05;;;;;;;-1.66;100.00;103097.16;4927894;29;20032;-73
2022/01/11 05:08:15;;;;;;;94.75;25.20;;;;;;;-1.68;100.00;103097.19;4914211;29;20040;-74
2022/01/11 05:10:44;;;;;;;125.13;27.05;;;;;;;-1.68;100.00;103088.53;4930200;29;20417;-74
2022/01/11 05:13:14;;;;;;;63.85;22.08;;;;;;;-1.88;100.00;103048.19;4911916;29;20462;-74
2022/01/11 05:15:40;;;;;;;64.88;22.08;;;;;;;-1.71;100.00;103080.81;4932508;29;20070;-74
2022/01/11 05:18:07;;;;;;;84.95;23.00;;;;;;;-1.77;100.00;103070.53;4915307;29;20387;-74
2022/01/11 05:20:33;;;;;;;75.55;26.90;;;;;;;-1.72;100.00;103079.97;4927595;29;20091;-74
2022/01/11 05:22:59;;;;;;;61.58;21.30;;;;;;;-1.69;100.00;103082.50;4924208;29;20563;-74
2022/01/11 05:25:24;;;;;;;66.13;24.23;;;;;;;-1.70;100.00;103149.84;4928431;29;20042;-74
2022/01/11 05:27:50;;;;;;;105.68;28.20;;;;;;;-1.83;100.00;103130.97;4918809;29;20122;-74
2022/01/11 05:30:15;;;;;;;114.05;29.65;;;;;;;-1.77;100.00;103154.22;4929287;29;20035;-74
2022/01/11 05:32:42;;;;;;;49.33;22.02;;;;;;;-1.64;100.00;103164.47;4927800;29;20063;-74
2022/01/11 05:35:10;;;;;;;70.10;23.63;;;;;;;-1.77;100.00;103143.00;4928570;29;20036;-74
2022/01/11 05:37:36;;;;;;;63.05;21.83;;;;;;;-1.61;100.00;103167.00;4927971;29;20087;-74
2022/01/11 05:40:03;;;;;;;59.70;22.98;;;;;;;-1.62;100.00;103162.72;4931271;29;20043;-74
2022/01/11 05:42:29;;;;;;;55.28;20.63;;;;;;;-1.66;100.00;103149.78;4911448;29;20032;-74
2022/01/11 05:44:54;;;;;;;77.78;24.83;;;;;;;-1.61;100.00;103172.19;4893648;29;20040;-74
2022/01/11 05:47:20;;;;;;;96.22;28.58;;;;;;;-1.62;100.00;103173.94;4908480;29;20127;-74
2022/01/11 05:49:45;;;;;;;76.03;26.30;;;;;;;-1.67;100.00;103171.38;4913718;29;20070;-74
2022/01/11 05:52:11;;;;;;;48.05;19.70;;;;;;;-1.77;100.00;103150.78;4923113;29;20031;-74
2022/01/11 05:54:36;;;;;;;66.18;25.38;;;;;;;-1.61;100.00;103185.13;4908600;29;20777;-74
2022/01/11 05:57:03;;;;;;;60.58;21.70;;;;;;;-1.72;100.00;103170.59;4925335;29;20036;-74
2022/01/11 05:59:29;;;;;;;60.88;23.40;;;;;;;-1.69;100.00;103178.31;4917875;29;20036;-74
2022/01/11 06:01:54;;;;;;;51.42;22.25;;;;;;;-1.74;100.00;103174.91;4913893;29;20035;-74
2022/01/11 06:04:19;;;;;;;58.88;24.88;;;;;;;-1.58;100.00;103200.66;4930695;29;20055;-75
2022/01/11 06:06:45;;;;;;;50.63;20.40;;;;;;;-1.57;100.00;103207.56;4925924;29;20105;-74
2022/01/11 06:09:10;;;;;;;54.67;21.65;;;;;;;-1.64;100.00;103196.38;4924783;29;20516;-74
2022/01/11 06:11:36;;;;;;;46.95;21.00;;;;;;;-1.61;100.00;103190.31;4927025;29;20047;-74
2022/01/11 06:14:01;;;;;;;60.63;23.00;;;;;;;-1.57;100.00;103207.56;4896823;29;20432;-74
2022/01/11 06:16:27;;;;;;;65.55;21.58;;;;;;;-1.61;100.00;103204.16;4929348;29;20028;-74
2022/01/11 06:18:52;;;;;;;53.45;21.75;;;;;;;-1.61;100.00;103193.78;4925494;29;20130;-74
2022/01/11 06:21:18;;;;;;;36.25;17.35;;;;;;;-1.59;100.00;103205.00;4911887;29;20087;-74
2022/01/11 06:23:45;;;;;;;50.80;19.80;;;;;;;-1.66;100.00;103188.63;4925679;29;20496;-74
2022/01/11 06:26:11;;;;;;;58.35;23.40;;;;;;;-1.69;100.00;103178.31;4904197;29;20043;-74
2022/01/11 06:28:37;;;;;;;69.47;23.00;;;;;;;-1.56;100.00;103199.78;4900421;29;20481;-75
2022/01/11 06:31:02;;;;;;;43.40;20.52;;;;;;;-1.67;100.00;103189.50;4908943;29;20090;-74
2022/01/11 06:33:27;;;;;;;55.63;21.98;;;;;;;-1.55;100.00;103209.25;4898547;29;20408;-74
2022/01/11 06:35:53;;;;;;;60.80;20.08;;;;;;;-1.66;100.00;103198.97;4925603;29;20040;-75
2022/01/11 06:38:18;;;;;;;53.00;20.65;;;;;;;-1.52;100.00;103218.75;4921912;29;20621;-75
2022/01/11 06:40:43;;;;;;;59.20;22.25;;;;;;;-1.54;100.00;103221.34;4922079;29;20035;-75
2022/01/11 06:43:09;;;;;;;30.45;13.00;;;;;;;-1.67;100.00;103197.28;4897220;29;20164;-75
2022/01/11 06:45:35;;;;;;;47.28;18.20;;;;;;;-1.52;100.00;103218.75;4913859;29;20067;-75
2022/01/11 06:48:00;;;;;;;37.55;17.02;;;;;;;-1.50;100.00;103217.00;4927918;29;20087;-75
2022/01/11 06:50:27;;;;;;;38.72;19.45;;;;;;;-1.49;100.00;103214.38;4928190;29;20048;-75
2022/01/11 06:52:53;;;;;;;55.17;21.88;;;;;;;-1.53;100.00;103209.25;4925834;29;20031;-75
2022/01/11 06:55:19;;;;;;;43.42;17.20;;;;;;;-1.44;100.00;103222.09;4925140;29;20131;-75
2022/01/11 06:57:46;;;;;;;48.03;20.15;;;;;;;-1.47;100.00;103209.19;4927779;29;20035;-75
2022/01/11 07:00:12;;;;;;;63.72;21.85;;;;;;;-1.48;100.00;103207.47;4927994;29;20114;-75
2022/01/11 07:02:37;;;;;;;56.22;20.52;;;;;;;-1.61;100.00;103182.56;4924284;29;20046;-75
2022/01/11 07:05:03;;;;;;;61.50;22.38;;;;;;;-1.51;100.00;103207.50;4925960;29;20575;-75
2022/01/11 07:07:29;;;;;;;50.22;21.20;;;;;;;-1.52;100.00;103210.97;4927232;29;20043;-74
2022/01/11 07:09:54;;;;;;;58.75;20.35;;;;;;;-1.54;100.00;103210.13;4924321;29;20420;-74
2022/01/11 07:12:20;;;;;;;58.55;20.70;;;;;;;-1.61;100.00;103185.13;4915216;29;20052;-74
2022/01/11 07:14:45;;;;;;;50.67;20.85;;;;;;;-1.55;100.00;103211.84;4929197;29;20036;-74
2022/01/11 07:17:11;;;;;;;54.60;19.63;;;;;;;-1.58;100.00;103211.03;4927946;29;20031;-75
2022/01/11 07:19:37;;;;;;;39.13;17.58;;;;;;;-1.52;100.00;103221.34;4925403;29;20053;-74
2022/01/11 07:22:03;;;;;;;59.05;23.95;;;;;;;-1.52;100.00;103224.78;4910719;29;20036;-74
2022/01/11 07:24:28;;;;;;;79.47;25.85;;;;;;;-1.55;100.00;103219.59;4911887;29;20490;-74
2022/01/11 07:26:54;;;;;;;45.80;20.23;;;;;;;-1.53;100.00;103219.59;4926999;29;20046;-74
2022/01/11 07:29:20;;;;;;;64.40;20.35;;;;;;;-1.54;100.00;103218.75;4914681;29;20063;-74
2022/01/11 07:31:45;;;;;;;41.78;18.98;;;;;;;-1.55;100.00;103231.72;4928192;29;20138;-74
2022/01/11 07:34:11;;;;;;;61.63;21.52;;;;;;;-1.52;100.00;103232.56;4914311;29;20035;-74
2022/01/11 07:36:37;;;;;;;56.60;21.27;;;;;;;-1.48;100.00;103239.41;4912687;29;20036;-75
2022/01/11 07:39:04;;;;;;;66.35;24.40;;;;;;;-1.53;100.00;103242.91;4908664;29;20074;-74
2022/01/11 07:41:29;;;;;;;58.95;21.88;;;;;;;-1.57;100.00;103223.09;4928162;29;20083;-74
2022/01/11 07:43:55;;;;;;;59.92;22.85;;;;;;;-1.54;100.00;103233.44;4903452;29;20032;-74
2022/01/11 07:46:20;;;;;;;67.60;24.55;;;;;;;-1.43;100.00;103249.75;4911776;29;20039;-74
2022/01/11 07:48:45;;;;;;;72.57;26.83;;;;;;;-1.40;100.00;103249.69;4926287;29;20118;-74
2022/01/11 07:51:11;;;;;;;83.03;24.58;;;;;;;-1.43;100.00;103246.31;4925186;29;20050;-74
2022/01/11 07:53:36;;;;;;;91.25;31.00;;;;;;;-1.36;100.00;103263.50;4904378;29;20027;-74
2022/01/11 07:56:02;;;;;;;72.93;22.42;;;;;;;-1.70;100.00;103199.03;4910815;29;20066;-74
2022/01/11 07:58:27;;;;;;;55.45;22.80;;;;;;;-1.36;100.00;103251.41;4921225;29;20088;-74
2022/01/11 08:00:53;;;;;;;69.20;23.40;;;;;;;-1.33;100.00;103253.97;4922974;29;20590;-74
2022/01/11 08:03:18;;;;;;;68.20;25.38;;;;;;;-1.27;100.00;103259.06;4905542;29;20032;-74
2022/01/11 08:05:44;;;;;;;60.45;24.48;;;;;;;-1.31;100.00;103249.59;4927070;29;20032;-74
2022/01/11 08:08:09;;;;;;;64.13;24.77;;;;;;;-1.30;100.00;103243.56;4926974;29;20721;-74
2022/01/11 08:10:35;;;;;;;83.72;27.33;;;;;;;-1.25;100.00;103244.38;4908471;29;20059;-75
2022/01/11 08:13:05;;;;;;;50.80;21.38;;;;;;;-1.17;100.00;103251.25;4905964;29;20056;-75
2022/01/11 08:15:30;;;;;;;56.10;21.38;;;;;;;-1.20;100.00;103248.66;4925337;29;20036;-75
2022/01/11 08:17:55;;;;;;;62.92;23.73;;;;;;;-1.28;100.00;103240.97;4910642;29;20032;-75
2022/01/11 08:20:21;;;;;;;62.08;24.67;;;;;;;-1.19;100.00;103255.56;4913587;29;20034;-75
2022/01/11 08:22:51;;;;;;;79.38;27.35;;;;;;;-1.39;100.00;103230.72;4923483;29;20598;-75
2022/01/11 08:25:16;;;;;;;55.53;22.95;;;;;;;-1.14;100.00;103259.81;4906258;29;20896;-75
2022/01/11 08:27:42;;;;;;;48.70;20.35;;;;;;;-1.19;100.00;103248.66;4926138;29;20040;-75
2022/01/11 08:30:08;;;;;;;64.72;24.80;;;;;;;-1.13;100.00;103252.91;4918946;29;20103;-75
2022/01/11 08:32:33;;;;;;;71.47;26.30;;;;;;;-1.39;100.00;103190.97;4924508;29;20039;-75
2022/01/11 08:34:58;;;;;;;47.50;21.27;;;;;;;-1.12;100.00;103242.53;4916829;29;20035;-75
2022/01/11 08:37:24;;;;;;;58.20;25.02;;;;;;;-1.07;100.00;103248.53;4926731;29;20443;-75
2022/01/11 08:39:49;;;;;;;55.03;20.83;;;;;;;-1.07;100.00;103239.88;4926113;29;20028;-76
2022/01/11 08:42:15;;;;;;;55.13;23.52;;;;;;;-0.97;100.00;103253.63;4915684;29;20036;-76
2022/01/11 08:44:46;;;;;;;52.30;21.13;;;;;;;-1.01;100.00;103255.38;4928002;29;20072;-76
2022/01/11 08:47:12;;;;;;;69.10;24.30;;;;;;;-0.99;100.00;103261.41;4924842;29;20027;-76
2022/01/11 08:49:38;;;;;;;53.08;22.02;;;;;;;-1.13;100.00;103245.13;4914166;29;20035;-76
2022/01/11 08:52:03;;;;;;;53.38;25.15;;;;;;;-1.03;100.00;103254.53;4926287;29;20478;-76
2022/01/11 08:54:29;;;;;;;48.42;20.67;;;;;;;-1.06;100.00;103257.16;4913011;29;20046;-76
2022/01/11 08:56:55;;;;;;;64.13;20.98;;;;;;;-1.04;100.00;103245.91;4917482;29;20039;-76
2022/01/11 08:59:23;;;;;;;48.75;20.00;;;;;;;-1.12;100.00;103232.16;4924971;29;20039;-76
2022/01/11 09:01:49;;;;;;;55.53;21.20;;;;;;;-0.96;100.00;103244.94;4911160;29;20034;-76
2022/01/11 09:04:16;;;;;;;57.15;21.85;;;;;;;-1.09;100.00;103189.78;4912650;29;20067;-76
2022/01/11 09:06:42;;;;;;;50.53;19.70;;;;;;;-1.01;100.00;103203.53;4913832;29;20049;-76
2022/01/11 09:09:08;;;;;;;42.70;18.52;;;;;;;-0.97;100.00;103210.41;4927550;29;20039;-76
2022/01/11 09:11:33;;;;;;;51.63;20.95;;;;;;;-0.93;100.00;103212.09;4928364;29;20078;-76
2022/01/11 09:13:58;;;;;;;58.20;20.42;;;;;;;-0.92;100.00;103218.13;4924664;29;20381;-76
2022/01/11 09:16:24;;;;;;;49.00;20.85;;;;;;;-0.90;100.00;103221.56;4914093;29;20054;-76
2022/01/11 09:18:50;;;;;;;51.05;19.77;;;;;;;-0.91;100.00;103219.84;4912809;29;20031;-76
2022/01/11 09:21:20;;;;;;;39.70;18.83;;;;;;;-0.91;100.00;103218.13;4927623;29;20031;-76
2022/01/11 09:23:45;;;;;;;60.67;19.85;;;;;;;-1.14;100.00;103176.03;4923139;29;20031;-76
2022/01/11 09:26:11;;;;;;;36.80;18.85;;;;;;;-0.88;100.00;103214.63;4912490;29;20036;-76
2022/01/11 09:28:36;;;;;;;35.53;16.98;;;;;;;-0.81;100.00;103221.44;4922247;29;20038;-77
2022/01/11 09:31:01;;;;;;;49.33;21.25;;;;;;;-0.99;100.00;103201.78;4914799;29;20028;-76
2022/01/11 09:33:27;;;;;;;51.10;20.73;;;;;;;-0.82;100.00;103218.91;4910821;29;20484;-76
2022/01/11 09:35:52;;;;;;;55.35;21.10;;;;;;;-0.85;100.00;103214.56;4897952;29;20056;-76
2022/01/11 09:38:18;;;;;;;48.28;21.02;;;;;;;-0.87;100.00;103209.44;4926338;29;20031;-76
2022/01/11 09:40:43;;;;;;;48.25;20.10;;;;;;;-1.06;100.00;103184.59;4914555;29;20047;-76
2022/01/11 09:43:10;;;;;;;43.40;17.75;;;;;;;-0.81;100.00;103215.41;4913083;29;20067;-76
2022/01/11 09:45:37;;;;;;;45.95;18.80;;;;;;;-0.76;100.00;103219.69;4927252;29;20044;-76
2022/01/11 09:48:03;;;;;;;46.63;19.85;;;;;;;-0.87;100.00;103191.28;4911568;29;20038;-76
2022/01/11 09:50:28;;;;;;;46.65;18.75;;;;;;;-0.72;100.00;103225.66;4923451;29;20032;-76
2022/01/11 09:52:54;;;;;;;39.53;17.17;;;;;;;-0.76;100.00;103205.81;4927434;29;20046;-76
2022/01/11 09:55:20;;;;;;;30.35;14.65;;;;;;;-0.67;100.00;103214.38;4925008;29;20098;-76
2022/01/11 09:57:45;;;;;;;41.60;17.50;;;;;;;-0.61;100.00;103216.00;4915242;29;20627;-76
2022/01/11 10:00:12;;;;;;;24.85;14.85;;;;;;;-0.60;100.00;103225.53;4923637;29;20078;-76
2022/01/11 10:02:38;;;;;;;47.33;19.30;;;;;;;-0.57;100.00;103215.09;4925601;29;20497;-76
2022/01/11 10:05:07;;;;;;;33.70;15.60;;;;;;;-0.65;100.00;103196.22;4914087;29;20044;-76
2022/01/11 10:07:36;;;;;;;25.40;14.57;;;;;;;-0.49;100.00;103213.28;4920776;29;20489;-75
2022/01/11 10:10:04;;;;;;;28.13;14.32;;;;;;;-0.44;100.00;103211.47;4909494;29;20028;-75
2022/01/11 10:12:40;;;;;;;31.27;15.63;;;;;;;-0.37;100.00;103220.03;4907022;29;20159;-75
2022/01/11 10:15:06;;;;;;;34.17;15.27;;;;;;;-0.47;100.00;103201.13;4924457;29;20118;-75
2022/01/11 10:17:39;;;;;;;32.00;14.68;;;;;;;-0.28;100.00;103222.50;4897256;29;20131;-75
2022/01/11 10:20:06;;;;;;;30.02;14.90;;;;;;;-0.32;100.00;103199.22;4925362;29;20353;-75
2022/01/11 10:22:32;;;;;;;30.90;14.88;;;;;;;-0.14;100.00;103219.69;4930047;29;20523;-74
2022/01/11 10:24:59;;;;;;;28.88;13.23;;;;;;;-0.15;100.00;103191.16;4923463;29;20031;-76
2022/01/11 10:27:31;;;;;;;28.70;13.57;;;;;;;-0.02;100.00;103171.94;4926416;29;20091;-75
2022/01/11 10:29:59;;;;;;;30.25;14.80;;;;;;;0.53;100.00;103207.38;4929263;29;20586;-74
2022/01/11 10:32:30;;;;;;;24.35;13.57;;;;;;;1.35;100.00;103200.59;4926390;29;20055;-74
2022/01/11 10:35:01;;;;;;;23.73;12.57;;;;;;;1.90;100.00;103180.28;4930042;29;20026;-74
2022/01/11 10:37:28;;;;;;;28.45;12.65;;;;;;;2.33;100.00;103164.47;4929684;29;20050;-74
2022/01/11 10:40:06;;;;;;;23.38;11.68;;;;;;;2.38;98.96;103193.84;4913800;29;20071;-74
2022/01/11 10:42:34;;;;;;;26.45;10.75;;;;;;;2.29;97.87;103193.22;4912033;29;20068;-75
2022/01/11 10:45:08;;;;;;;21.80;10.38;;;;;;;2.08;95.97;103184.19;4910799;29;20040;-75
2022/01/11 10:47:37;;;;;;;17.52;9.65;;;;;;;2.20;95.77;103200.38;4897771;29;20066;-75
2022/01/11 10:50:05;;;;;;;17.65;9.48;;;;;;;1.83;95.47;103190.00;4928594;29;20041;-75
2022/01/11 10:52:32;;;;;;;14.90;9.38;;;;;;;1.46;97.21;103190.84;4925407;29;20043;-75
2022/01/11 10:54:59;;;;;;;19.70;9.48;;;;;;;1.11;97.99;103189.81;4923157;29;20572;-75
2022/01/11 10:57:28;;;;;;;19.77;10.88;;;;;;;0.98;99.51;103202.22;4929092;29;20039;-76
2022/01/11 11:00:11;;;;;;;21.92;10.25;;;;;;;0.96;100.00;103196.19;4931257;29;20154;-75